sensor_id;sensor_type;location;lat;lon;timestamp;temperature;humidity
71142;DHT22;58808;59.366;17.970;2022-11-09T00:01:35;10.00;99.90
71142;DHT22;58808;59.366;17.970;2022-11-09T00:04:03;10.10;99.90
71142;DHT22;58808;59.366;17.970;2022-11-09T00:06:30;10.00;99.90
71142;DHT22;58808;59.366;17.970;2022-11-09T00:08:57;10.10;99.90
71142;DHT22;58808;59.366;17.970;2022-11-09T00:11:23;10.10;99.90
71142;DHT22;58808;59.366;17.970;2022-11-09T00:13:49;10.10;99.90
71142;DHT22;58808;59.366;17.970;2022-11-09T00:16:18;10.10;99.90
71142;DHT22;58808;59.366;17.970;2022-11-09T00:18:44;10.10;99.90
71142;DHT22;58808;59.366;17.970;2022-11-09T00:21:18;10.10;99.90
71142;DHT22;58808;59.366;17.970;2022-11-09T00:23:44;10.10;99.90
71142;DHT22;58808;59.366;17.970;2022-11-09T00:26:12;10.10;99.90
71142;DHT22;58808;59.366;17.970;2022-11-09T00:28:38;10.00;99.90
71142;DHT22;58808;59.366;17.970;2022-11-09T00:31:08;10.00;99.90
71142;DHT22;58808;59.366;17.970;2022-11-09T00:33:34;10.10;99.90
71142;DHT22;58808;59.366;17.970;2022-11-09T00:36:11;10.00;99.90
71142;DHT22;58808;59.366;17.970;2022-11-09T00:38:38;10.10;99.90
71142;DHT22;58808;59.366;17.970;2022-11-09T00:41:09;10.00;99.90
71142;DHT22;58808;59.366;17.970;2022-11-09T00:43:35;10.10;99.90
71142;DHT22;58808;59.366;17.970;2022-11-09T00:46:01;10.10;99.90
71142;DHT22;58808;59.366;17.970;2022-11-09T00:48:27;10.00;99.90
71142;DHT22;58808;59.366;17.970;2022-11-09T00:50:54;10.10;99.90
71142;DHT22;58808;59.366;17.970;2022-11-09T00:53:21;10.00;99.90
71142;DHT22;58808;59.366;17.970;2022-11-09T00:58:23;10.00;99.90
71142;DHT22;58808;59.366;17.970;2022-11-09T01:00:49;10.10;99.90
71142;DHT22;58808;59.366;17.970;2022-11-09T01:03:16;10.00;99.90
71142;DHT22;58808;59.366;17.970;2022-11-09T01:05:42;10.10;99.90
71142;DHT22;58808;59.366;17.970;2022-11-09T01:08:08;10.10;99.90
71142;DHT22;58808;59.366;17.970;2022-11-09T01:10:34;10.10;99.90
71142;DHT22;58808;59.366;17.970;2022-11-09T01:13:00;10.10;99.90
71142;DHT22;58808;59.366;17.970;2022-11-09T01:15:26;10.00;99.90
71142;DHT22;58808;59.366;17.970;2022-11-09T01:17:51;10.10;99.90
71142;DHT22;58808;59.366;17.970;2022-11-09T01:20:17;10.00;99.90
71142;DHT22;58808;59.366;17.970;2022-11-09T01:22:43;10.00;99.90
71142;DHT22;58808;59.366;17.970;2022-11-09T01:25:09;10.00;99.90
71142;DHT22;58808;59.366;17.970;2022-11-09T01:27:35;10.00;99.90
71142;DHT22;58808;59.366;17.970;2022-11-09T01:30:01;10.00;99.90
71142;DHT22;58808;59.366;17.970;2022-11-09T01:32:30;10.00;99.90
71142;DHT22;58808;59.366;17.970;2022-11-09T01:34:56;10.00;99.90
71142;DHT22;58808;59.366;17.970;2022-11-09T01:37:22;10.00;99.90
71142;DHT22;58808;59.366;17.970;2022-11-09T01:39:47;10.00;99.90
71142;DHT22;58808;59.366;17.970;2022-11-09T01:42:14;10.00;99.90
71142;DHT22;58808;59.366;17.970;2022-11-09T01:44:39;10.10;99.90
71142;DHT22;58808;59.366;17.970;2022-11-09T01:47:14;10.00;99.90
71142;DHT22;58808;59.366;17.970;2022-11-09T01:49:54;10.10;99.90
71142;DHT22;58808;59.366;17.970;2022-11-09T01:52:36;10.10;99.90
71142;DHT22;58808;59.366;17.970;2022-11-09T01:55:15;10.00;99.90
71142;DHT22;58808;59.366;17.970;2022-11-09T01:57:46;10.00;99.90
71142;DHT22;58808;59.366;17.970;2022-11-09T02:00:15;10.10;99.90
71142;DHT22;58808;59.366;17.970;2022-11-09T02:03:05;10.10;99.90
71142;DHT22;58808;59.366;17.970;2022-11-09T02:05:33;10.10;99.90
71142;DHT22;58808;59.366;17.970;2022-11-09T02:08:02;10.10;99.90
71142;DHT22;58808;59.366;17.970;2022-11-09T02:13:23;10.00;99.90
71142;DHT22;58808;59.366;17.970;2022-11-09T02:15:50;10.00;99.90
71142;DHT22;58808;59.366;17.970;2022-11-09T02:18:17;10.00;99.90
71142;DHT22;58808;59.366;17.970;2022-11-09T02:20:54;10.00;99.90
71142;DHT22;58808;59.366;17.970;2022-11-09T02:23:21;10.00;99.90
71142;DHT22;58808;59.366;17.970;2022-11-09T02:26:04;10.00;99.90
71142;DHT22;58808;59.366;17.970;2022-11-09T02:28:31;10.00;99.90
71142;DHT22;58808;59.366;17.970;2022-11-09T02:30:58;10.00;99.90
71142;DHT22;58808;59.366;17.970;2022-11-09T02:33:23;10.00;99.90
71142;DHT22;58808;59.366;17.970;2022-11-09T02:35:49;10.10;99.90
71142;DHT22;58808;59.366;17.970;2022-11-09T02:38:15;10.00;99.90
71142;DHT22;58808;59.366;17.970;2022-11-09T02:40:44;10.00;99.90
71142;DHT22;58808;59.366;17.970;2022-11-09T02:43:11;10.00;99.90
71142;DHT22;58808;59.366;17.970;2022-11-09T02:45:38;10.00;99.90
71142;DHT22;58808;59.366;17.970;2022-11-09T02:48:04;10.00;99.90
71142;DHT22;58808;59.366;17.970;2022-11-09T02:50:30;10.00;99.90
71142;DHT22;58808;59.366;17.970;2022-11-09T02:52:56;10.00;99.90
71142;DHT22;58808;59.366;17.970;2022-11-09T02:55:22;10.00;99.90
71142;DHT22;58808;59.366;17.970;2022-11-09T02:57:47;10.00;99.90
71142;DHT22;58808;59.366;17.970;2022-11-09T03:00:13;10.00;99.90
71142;DHT22;58808;59.366;17.970;2022-11-09T03:02:39;10.00;99.90
71142;DHT22;58808;59.366;17.970;2022-11-09T03:05:05;10.00;99.90
71142;DHT22;58808;59.366;17.970;2022-11-09T03:07:31;10.00;99.90
71142;DHT22;58808;59.366;17.970;2022-11-09T03:09:57;10.00;99.90
71142;DHT22;58808;59.366;17.970;2022-11-09T03:12:22;10.10;99.90
71142;DHT22;58808;59.366;17.970;2022-11-09T03:15:02;10.00;99.90
71142;DHT22;58808;59.366;17.970;2022-11-09T03:17:30;10.10;99.90
71142;DHT22;58808;59.366;17.970;2022-11-09T03:19:55;10.10;99.90
71142;DHT22;58808;59.366;17.970;2022-11-09T03:22:21;10.10;99.90
71142;DHT22;58808;59.366;17.970;2022-11-09T03:24:47;10.10;99.90
71142;DHT22;58808;59.366;17.970;2022-11-09T03:27:13;10.10;99.90
71142;DHT22;58808;59.366;17.970;2022-11-09T03:29:39;10.10;99.90
71142;DHT22;58808;59.366;17.970;2022-11-09T03:32:05;10.10;99.90
71142;DHT22;58808;59.366;17.970;2022-11-09T03:34:31;10.00;99.90
71142;DHT22;58808;59.366;17.970;2022-11-09T03:36:57;10.00;99.90
71142;DHT22;58808;59.366;17.970;2022-11-09T03:39:22;10.00;99.90
71142;DHT22;58808;59.366;17.970;2022-11-09T03:41:48;10.00;99.90
71142;DHT22;58808;59.366;17.970;2022-11-09T03:44:14;10.00;99.90
71142;DHT22;58808;59.366;17.970;2022-11-09T03:46:39;10.00;99.90
71142;DHT22;58808;59.366;17.970;2022-11-09T03:49:05;10.00;99.90
71142;DHT22;58808;59.366;17.970;2022-11-09T03:51:31;10.00;99.90
71142;DHT22;58808;59.366;17.970;2022-11-09T03:53:57;10.00;99.90
71142;DHT22;58808;59.366;17.970;2022-11-09T03:56:22;10.00;99.90
71142;DHT22;58808;59.366;17.970;2022-11-09T03:58:48;10.00;99.90
71142;DHT22;58808;59.366;17.970;2022-11-09T04:01:14;10.00;99.90
71142;DHT22;58808;59.366;17.970;2022-11-09T04:03:40;10.00;99.90
71142;DHT22;58808;59.366;17.970;2022-11-09T04:06:05;10.00;99.90
71142;DHT22;58808;59.366;17.970;2022-11-09T04:08:31;10.00;99.90
71142;DHT22;58808;59.366;17.970;2022-11-09T04:10:57;10.00;99.90
71142;DHT22;58808;59.366;17.970;2022-11-09T04:13:23;10.00;99.90
71142;DHT22;58808;59.366;17.970;2022-11-09T04:15:51;10.00;99.90
71142;DHT22;58808;59.366;17.970;2022-11-09T04:18:16;10.00;99.90
71142;DHT22;58808;59.366;17.970;2022-11-09T04:20:42;10.00;99.90
71142;DHT22;58808;59.366;17.970;2022-11-09T04:23:12;10.00;99.90
71142;DHT22;58808;59.366;17.970;2022-11-09T04:25:39;10.00;99.90
71142;DHT22;58808;59.366;17.970;2022-11-09T04:28:07;10.00;99.90
71142;DHT22;58808;59.366;17.970;2022-11-09T04:30:34;10.00;99.90
71142;DHT22;58808;59.366;17.970;2022-11-09T04:33:00;10.00;99.90
71142;DHT22;58808;59.366;17.970;2022-11-09T04:35:28;10.00;99.90
71142;DHT22;58808;59.366;17.970;2022-11-09T04:37:59;10.00;99.90
71142;DHT22;58808;59.366;17.970;2022-11-09T04:40:27;10.00;99.90
71142;DHT22;58808;59.366;17.970;2022-11-09T04:42:54;10.00;99.90
71142;DHT22;58808;59.366;17.970;2022-11-09T04:45:20;10.00;99.90
71142;DHT22;58808;59.366;17.970;2022-11-09T04:47:47;10.00;99.90
71142;DHT22;58808;59.366;17.970;2022-11-09T04:50:13;10.00;99.90
71142;DHT22;58808;59.366;17.970;2022-11-09T04:52:39;10.00;99.90
71142;DHT22;58808;59.366;17.970;2022-11-09T04:55:08;10.00;99.90
71142;DHT22;58808;59.366;17.970;2022-11-09T04:57:33;10.00;99.90
71142;DHT22;58808;59.366;17.970;2022-11-09T04:59:59;10.00;99.90
71142;DHT22;58808;59.366;17.970;2022-11-09T05:02:25;10.00;99.90
71142;DHT22;58808;59.366;17.970;2022-11-09T05:04:50;10.00;99.90
71142;DHT22;58808;59.366;17.970;2022-11-09T05:07:16;10.00;99.90
71142;DHT22;58808;59.366;17.970;2022-11-09T05:09:44;10.00;99.90
71142;DHT22;58808;59.366;17.970;2022-11-09T05:12:10;10.00;99.90
71142;DHT22;58808;59.366;17.970;2022-11-09T05:14:36;10.00;99.90
71142;DHT22;58808;59.366;17.970;2022-11-09T05:17:02;10.00;99.90
71142;DHT22;58808;59.366;17.970;2022-11-09T05:19:28;10.00;99.90
71142;DHT22;58808;59.366;17.970;2022-11-09T05:21:53;10.00;99.90
71142;DHT22;58808;59.366;17.970;2022-11-09T05:24:19;10.00;99.90
71142;DHT22;58808;59.366;17.970;2022-11-09T05:26:45;10.00;99.90
71142;DHT22;58808;59.366;17.970;2022-11-09T05:29:11;10.00;99.90
71142;DHT22;58808;59.366;17.970;2022-11-09T05:31:38;10.00;99.90
71142;DHT22;58808;59.366;17.970;2022-11-09T05:34:05;10.00;99.90
71142;DHT22;58808;59.366;17.970;2022-11-09T05:36:32;10.00;99.90
71142;DHT22;58808;59.366;17.970;2022-11-09T05:39:00;10.00;99.90
71142;DHT22;58808;59.366;17.970;2022-11-09T05:41:26;10.00;99.90
71142;DHT22;58808;59.366;17.970;2022-11-09T05:43:52;10.00;99.90
71142;DHT22;58808;59.366;17.970;2022-11-09T05:46:18;10.00;99.90
71142;DHT22;58808;59.366;17.970;2022-11-09T05:48:45;10.00;99.90
71142;DHT22;58808;59.366;17.970;2022-11-09T05:51:12;10.00;99.90
71142;DHT22;58808;59.366;17.970;2022-11-09T05:53:38;10.00;99.90
71142;DHT22;58808;59.366;17.970;2022-11-09T05:56:06;10.10;99.90
71142;DHT22;58808;59.366;17.970;2022-11-09T05:58:32;10.10;99.90
71142;DHT22;58808;59.366;17.970;2022-11-09T06:01:11;10.10;99.90
71142;DHT22;58808;59.366;17.970;2022-11-09T06:03:37;10.10;99.90
71142;DHT22;58808;59.366;17.970;2022-11-09T06:06:06;10.10;99.90
71142;DHT22;58808;59.366;17.970;2022-11-09T06:08:32;10.10;99.90
71142;DHT22;58808;59.366;17.970;2022-11-09T06:11:00;10.10;99.90
71142;DHT22;58808;59.366;17.970;2022-11-09T06:13:27;10.10;99.90
71142;DHT22;58808;59.366;17.970;2022-11-09T06:15:54;10.10;99.90
71142;DHT22;58808;59.366;17.970;2022-11-09T06:18:21;10.10;99.90
71142;DHT22;58808;59.366;17.970;2022-11-09T06:20:53;10.10;99.90
71142;DHT22;58808;59.366;17.970;2022-11-09T06:23:19;10.10;99.90
71142;DHT22;58808;59.366;17.970;2022-11-09T06:25:50;10.10;99.90
71142;DHT22;58808;59.366;17.970;2022-11-09T06:28:19;10.10;99.90
71142;DHT22;58808;59.366;17.970;2022-11-09T06:30:45;10.10;99.90
71142;DHT22;58808;59.366;17.970;2022-11-09T06:33:11;10.10;99.90
71142;DHT22;58808;59.366;17.970;2022-11-09T06:35:36;10.10;99.90
71142;DHT22;58808;59.366;17.970;2022-11-09T06:38:02;10.10;99.90
71142;DHT22;58808;59.366;17.970;2022-11-09T06:40:28;10.10;99.90
71142;DHT22;58808;59.366;17.970;2022-11-09T06:42:58;10.10;99.90
71142;DHT22;58808;59.366;17.970;2022-11-09T06:45:26;10.10;99.90
71142;DHT22;58808;59.366;17.970;2022-11-09T06:48:00;10.10;99.90
71142;DHT22;58808;59.366;17.970;2022-11-09T06:50:29;10.10;99.90
71142;DHT22;58808;59.366;17.970;2022-11-09T06:52:57;10.10;99.90
71142;DHT22;58808;59.366;17.970;2022-11-09T06:55:23;10.10;99.90
71142;DHT22;58808;59.366;17.970;2022-11-09T06:57:49;10.10;99.90
71142;DHT22;58808;59.366;17.970;2022-11-09T07:00:15;10.10;99.90
71142;DHT22;58808;59.366;17.970;2022-11-09T07:02:41;10.10;99.90
71142;DHT22;58808;59.366;17.970;2022-11-09T07:05:07;10.10;99.90
71142;DHT22;58808;59.366;17.970;2022-11-09T07:07:36;10.10;99.90
71142;DHT22;58808;59.366;17.970;2022-11-09T07:10:05;10.10;99.90
71142;DHT22;58808;59.366;17.970;2022-11-09T07:12:41;10.10;99.90
71142;DHT22;58808;59.366;17.970;2022-11-09T07:15:16;10.10;99.90
71142;DHT22;58808;59.366;17.970;2022-11-09T07:17:42;10.10;99.90
71142;DHT22;58808;59.366;17.970;2022-11-09T07:20:14;10.10;99.90
71142;DHT22;58808;59.366;17.970;2022-11-09T07:22:51;10.10;99.90
71142;DHT22;58808;59.366;17.970;2022-11-09T07:25:17;10.10;99.90
71142;DHT22;58808;59.366;17.970;2022-11-09T07:27:43;10.10;99.90
71142;DHT22;58808;59.366;17.970;2022-11-09T07:30:09;10.10;99.90
71142;DHT22;58808;59.366;17.970;2022-11-09T07:32:36;10.10;99.90
71142;DHT22;58808;59.366;17.970;2022-11-09T07:35:03;10.20;99.90
71142;DHT22;58808;59.366;17.970;2022-11-09T07:37:29;10.20;99.90
71142;DHT22;58808;59.366;17.970;2022-11-09T07:40:00;10.20;99.90
71142;DHT22;58808;59.366;17.970;2022-11-09T07:42:26;10.20;99.90
71142;DHT22;58808;59.366;17.970;2022-11-09T07:44:52;10.20;99.90
71142;DHT22;58808;59.366;17.970;2022-11-09T07:47:18;10.20;99.90
71142;DHT22;58808;59.366;17.970;2022-11-09T07:49:45;10.20;99.90
71142;DHT22;58808;59.366;17.970;2022-11-09T07:52:11;10.20;99.90
71142;DHT22;58808;59.366;17.970;2022-11-09T07:54:37;10.30;99.90
71142;DHT22;58808;59.366;17.970;2022-11-09T07:57:04;10.30;99.90
71142;DHT22;58808;59.366;17.970;2022-11-09T07:59:30;10.30;99.90
71142;DHT22;58808;59.366;17.970;2022-11-09T08:01:56;10.30;99.90
71142;DHT22;58808;59.366;17.970;2022-11-09T08:04:22;10.30;99.90
71142;DHT22;58808;59.366;17.970;2022-11-09T08:10:02;10.30;99.90
71142;DHT22;58808;59.366;17.970;2022-11-09T08:12:28;10.30;99.90
71142;DHT22;58808;59.366;17.970;2022-11-09T08:14:53;10.40;99.90
71142;DHT22;58808;59.366;17.970;2022-11-09T08:17:19;10.40;99.90
71142;DHT22;58808;59.366;17.970;2022-11-09T08:19:45;10.40;99.90
71142;DHT22;58808;59.366;17.970;2022-11-09T08:22:10;10.50;99.90
71142;DHT22;58808;59.366;17.970;2022-11-09T08:24:36;10.60;99.90
71142;DHT22;58808;59.366;17.970;2022-11-09T08:27:02;10.60;99.90
71142;DHT22;58808;59.366;17.970;2022-11-09T08:29:27;10.60;99.90
71142;DHT22;58808;59.366;17.970;2022-11-09T08:31:53;10.60;99.90
71142;DHT22;58808;59.366;17.970;2022-11-09T08:34:19;10.60;99.90
71142;DHT22;58808;59.366;17.970;2022-11-09T08:36:45;10.60;99.90
71142;DHT22;58808;59.366;17.970;2022-11-09T08:39:10;10.60;99.90
71142;DHT22;58808;59.366;17.970;2022-11-09T08:41:36;10.60;99.90
71142;DHT22;58808;59.366;17.970;2022-11-09T08:44:02;10.60;99.90
71142;DHT22;58808;59.366;17.970;2022-11-09T08:46:27;10.60;99.90
71142;DHT22;58808;59.366;17.970;2022-11-09T08:48:54;10.70;99.90
71142;DHT22;58808;59.366;17.970;2022-11-09T08:51:19;10.70;99.90
71142;DHT22;58808;59.366;17.970;2022-11-09T08:53:45;10.80;99.90
71142;DHT22;58808;59.366;17.970;2022-11-09T08:56:11;10.80;99.90
71142;DHT22;58808;59.366;17.970;2022-11-09T08:58:38;10.80;99.90
71142;DHT22;58808;59.366;17.970;2022-11-09T09:01:10;10.90;99.90
71142;DHT22;58808;59.366;17.970;2022-11-09T09:03:36;10.80;99.90
71142;DHT22;58808;59.366;17.970;2022-11-09T09:06:05;10.80;99.90
71142;DHT22;58808;59.366;17.970;2022-11-09T09:08:31;10.80;99.90
71142;DHT22;58808;59.366;17.970;2022-11-09T09:11:01;10.80;99.90
71142;DHT22;58808;59.366;17.970;2022-11-09T09:13:27;10.70;99.90
71142;DHT22;58808;59.366;17.970;2022-11-09T09:15:53;10.70;99.90
71142;DHT22;58808;59.366;17.970;2022-11-09T09:18:19;10.70;99.90
71142;DHT22;58808;59.366;17.970;2022-11-09T09:20:45;10.70;99.90
71142;DHT22;58808;59.366;17.970;2022-11-09T09:23:13;10.70;99.90
71142;DHT22;58808;59.366;17.970;2022-11-09T09:25:40;10.70;99.90
71142;DHT22;58808;59.366;17.970;2022-11-09T09:28:06;10.70;99.90
71142;DHT22;58808;59.366;17.970;2022-11-09T09:30:31;10.80;99.90
71142;DHT22;58808;59.366;17.970;2022-11-09T09:32:58;10.80;99.90
71142;DHT22;58808;59.366;17.970;2022-11-09T09:35:25;10.80;99.90
71142;DHT22;58808;59.366;17.970;2022-11-09T09:37:51;10.80;99.90
71142;DHT22;58808;59.366;17.970;2022-11-09T09:40:34;10.90;99.90
71142;DHT22;58808;59.366;17.970;2022-11-09T09:43:01;10.90;99.90
71142;DHT22;58808;59.366;17.970;2022-11-09T09:45:34;10.90;99.90
71142;DHT22;58808;59.366;17.970;2022-11-09T09:48:39;11.00;99.90
71142;DHT22;58808;59.366;17.970;2022-11-09T09:51:15;11.10;99.90
71142;DHT22;58808;59.366;17.970;2022-11-09T09:53:50;11.10;99.90
71142;DHT22;58808;59.366;17.970;2022-11-09T09:56:21;11.10;99.90
71142;DHT22;58808;59.366;17.970;2022-11-09T09:58:57;11.10;99.90
71142;DHT22;58808;59.366;17.970;2022-11-09T10:01:32;11.10;99.90
71142;DHT22;58808;59.366;17.970;2022-11-09T10:04:00;11.20;99.90
71142;DHT22;58808;59.366;17.970;2022-11-09T10:12:03;11.40;99.90
71142;DHT22;58808;59.366;17.970;2022-11-09T10:14:51;11.40;99.90
71142;DHT22;58808;59.366;17.970;2022-11-09T10:18:06;11.40;99.90
71142;DHT22;58808;59.366;17.970;2022-11-09T10:25:44;11.10;99.90
71142;DHT22;58808;59.366;17.970;2022-11-09T10:28:22;11.10;99.90
71142;DHT22;58808;59.366;17.970;2022-11-09T10:30:51;11.10;99.90
71142;DHT22;58808;59.366;17.970;2022-11-09T10:33:19;11.10;99.90
71142;DHT22;58808;59.366;17.970;2022-11-09T10:36:26;11.00;99.90
71142;DHT22;58808;59.366;17.970;2022-11-09T10:38:55;11.00;99.90
71142;DHT22;58808;59.366;17.970;2022-11-09T10:43:59;11.00;99.90
71142;DHT22;58808;59.366;17.970;2022-11-09T10:46:25;11.00;99.90
71142;DHT22;58808;59.366;17.970;2022-11-09T10:48:52;11.10;99.90
71142;DHT22;58808;59.366;17.970;2022-11-09T10:54:23;11.40;99.90
71142;DHT22;58808;59.366;17.970;2022-11-09T10:57:22;11.50;99.90
71142;DHT22;58808;59.366;17.970;2022-11-09T10:59:55;11.60;99.90
71142;DHT22;58808;59.366;17.970;2022-11-09T11:07:32;11.70;99.90
71142;DHT22;58808;59.366;17.970;2022-11-09T11:12:41;11.80;99.90
71142;DHT22;58808;59.366;17.970;2022-11-09T11:15:25;11.80;99.90
71142;DHT22;58808;59.366;17.970;2022-11-09T11:18:01;11.80;99.90
71142;DHT22;58808;59.366;17.970;2022-11-09T11:20:35;11.70;99.90
71142;DHT22;58808;59.366;17.970;2022-11-09T11:23:19;11.60;99.90
71142;DHT22;58808;59.366;17.970;2022-11-09T11:28:38;11.70;99.90
71142;DHT22;58808;59.366;17.970;2022-11-09T11:31:15;11.80;99.90
71142;DHT22;58808;59.366;17.970;2022-11-09T11:33:41;12.00;99.90
71142;DHT22;58808;59.366;17.970;2022-11-09T11:36:20;12.00;99.90
71142;DHT22;58808;59.366;17.970;2022-11-09T11:39:11;12.10;99.90
71142;DHT22;58808;59.366;17.970;2022-11-09T11:44:27;12.00;99.90
71142;DHT22;58808;59.366;17.970;2022-11-09T11:47:06;12.20;99.90
71142;DHT22;58808;59.366;17.970;2022-11-09T11:49:46;12.30;99.90
71142;DHT22;58808;59.366;17.970;2022-11-09T11:57:59;12.10;99.90
71142;DHT22;58808;59.366;17.970;2022-11-09T12:00:27;12.10;99.90
71142;DHT22;58808;59.366;17.970;2022-11-09T12:08:07;12.00;99.90
71142;DHT22;58808;59.366;17.970;2022-11-09T12:10:54;12.10;99.90
71142;DHT22;58808;59.366;17.970;2022-11-09T12:14:02;12.20;99.90
71142;DHT22;58808;59.366;17.970;2022-11-09T12:16:47;12.10;99.90
71142;DHT22;58808;59.366;17.970;2022-11-09T12:25:17;12.30;99.90
71142;DHT22;58808;59.366;17.970;2022-11-09T12:30:22;12.30;99.90
71142;DHT22;58808;59.366;17.970;2022-11-09T12:35:33;12.10;99.90
71142;DHT22;58808;59.366;17.970;2022-11-09T12:38:23;12.00;99.90
71142;DHT22;58808;59.366;17.970;2022-11-09T12:40:56;11.90;99.90
71142;DHT22;58808;59.366;17.970;2022-11-09T12:46:19;11.70;99.90
71142;DHT22;58808;59.366;17.970;2022-11-09T12:48:47;11.60;99.90
71142;DHT22;58808;59.366;17.970;2022-11-09T12:51:14;11.60;99.90
71142;DHT22;58808;59.366;17.970;2022-11-09T12:53:39;11.60;99.90
71142;DHT22;58808;59.366;17.970;2022-11-09T12:56:21;11.50;99.90
71142;DHT22;58808;59.366;17.970;2022-11-09T12:58:48;11.50;99.90
